Time;durP1;ratioP1;P1;durP2;ratioP2;P2;SDS_P1;SDS_P2;PMS_P1;PMS_P2;Temp;Humidity;BMP_temperature;BMP_pressure;BME280_temperature;BME280_humidity;BME280_pressure;Samples;Min_cycle;Max_cycle;Signal;HPM_P1;HPM_P2
2022/09/30 00:01:34;;;;;;;1.63;0.80;;;19.60;1.00;;;;;;5013889;28;20096;-57
2022/09/30 00:04:02;;;;;;;1.30;0.75;;;19.60;1.00;;;;;;5013943;28;20048;-54
2022/09/30 00:06:30;;;;;;;2.95;0.90;;;19.60;1.00;;;;;;5013934;28;20045;-55
2022/09/30 00:08:57;;;;;;;1.50;0.70;;;19.60;1.00;;;;;;5013891;28;20049;-55
2022/09/30 00:11:29;;;;;;;1.30;0.80;;;19.60;1.00;;;;;;5013931;28;20046;-55
2022/09/30 00:13:57;;;;;;;1.15;0.75;;;19.60;1.00;;;;;;5013532;28;20124;-57
2022/09/30 00:16:27;;;;;;;1.90;0.90;;;19.60;1.00;;;;;;5013955;28;20081;-56
2022/09/30 00:18:56;;;;;;;1.38;0.55;;;19.60;1.00;;;;;;5013749;28;20041;-55
2022/09/30 00:21:24;;;;;;;1.52;0.80;;;19.60;1.00;;;;;;5013938;28;20049;-55
2022/09/30 00:23:50;;;;;;;1.30;0.80;;;19.60;1.00;;;;;;5013442;28;20046;-56
2022/09/30 00:26:20;;;;;;;1.52;0.88;;;19.60;1.00;;;;;;5013637;28;20073;-58
2022/09/30 00:28:52;;;;;;;4.82;1.02;;;19.60;1.00;;;;;;5013670;28;20049;-58
2022/09/30 00:31:20;;;;;;;2.00;1.25;;;19.50;1.00;;;;;;5013679;28;20045;-58
2022/09/30 00:34:05;;;;;;;2.67;0.57;;;19.50;1.00;;;;;;5013448;28;20484;-57
2022/09/30 00:36:34;;;;;;;1.27;0.60;;;19.50;1.00;;;;;;5014005;28;20077;-58
2022/09/30 00:39:01;;;;;;;1.75;0.60;;;19.50;1.00;;;;;;5013477;28;20038;-57
2022/09/30 00:41:28;;;;;;;1.70;0.68;;;19.50;1.00;;;;;;5013204;28;20482;-57
2022/09/30 00:43:55;;;;;;;2.85;0.82;;;19.50;1.00;;;;;;5013101;28;20095;-58
2022/09/30 00:46:36;;;;;;;2.58;0.90;;;19.50;1.00;;;;;;5013612;28;20034;-57
2022/09/30 00:49:18;;;;;;;1.90;0.60;;;19.50;1.00;;;;;;5013676;28;20511;-57
2022/09/30 00:51:50;;;;;;;1.38;0.75;;;19.50;1.00;;;;;;5013402;28;20042;-58
2022/09/30 00:54:26;;;;;;;1.38;0.70;;;19.50;1.00;;;;;;5013351;28;20045;-58
2022/09/30 00:56:57;;;;;;;2.45;0.60;;;19.60;1.00;;;;;;5013533;28;20074;-57
2022/09/30 00:59:30;;;;;;;2.25;0.65;;;19.50;1.00;;;;;;5013456;28;20072;-57
2022/09/30 01:01:57;;;;;;;1.85;0.80;;;19.50;1.00;;;;;;5013488;28;20049;-58
2022/09/30 01:04:24;;;;;;;4.38;0.70;;;19.50;1.00;;;;;;5013463;28;20044;-56
2022/09/30 01:06:52;;;;;;;3.95;0.70;;;19.50;1.00;;;;;;5013274;28;20077;-57
2022/09/30 01:09:19;;;;;;;0.93;0.60;;;19.50;1.00;;;;;;5013213;28;20046;-56
2022/09/30 01:11:47;;;;;;;2.45;1.15;;;19.40;1.00;;;;;;5012853;28;20065;-58
2022/09/30 01:14:20;;;;;;;1.48;0.45;;;19.50;1.00;;;;;;5013128;28;20132;-56
2022/09/30 01:16:47;;;;;;;1.50;0.85;;;19.40;1.00;;;;;;5013702;28;20052;-56
2022/09/30 01:19:51;;;;;;;1.33;0.65;;;19.40;1.00;;;;;;5013057;28;20038;-56
2022/09/30 01:22:43;;;;;;;2.25;1.00;;;19.40;1.00;;;;;;5012891;28;20092;-57
2022/09/30 01:25:38;;;;;;;1.50;0.80;;;19.40;1.00;;;;;;5015952;28;20042;-57
2022/09/30 01:28:42;;;;;;;2.97;0.70;;;19.50;1.00;;;;;;5017082;28;20053;-57
2022/09/30 01:31:27;;;;;;;3.55;0.60;;;19.40;1.00;;;;;;5016766;28;20065;-56
2022/09/30 01:34:11;;;;;;;1.63;0.70;;;19.50;1.00;;;;;;5016536;28;20049;-57
2022/09/30 01:37:17;;;;;;;2.28;0.75;;;19.50;1.00;;;;;;5016970;28;20046;-55
2022/09/30 01:40:27;;;;;;;2.10;0.73;;;19.50;1.00;;;;;;5015645;28;20115;-57
2022/09/30 01:43:11;;;;;;;1.13;0.40;;;19.40;1.00;;;;;;5015267;28;20056;-56
2022/09/30 01:45:45;;;;;;;0.80;0.50;;;19.40;1.00;;;;;;5016375;28;20391;-58
2022/09/30 01:48:24;;;;;;;0.98;0.60;;;19.40;1.00;;;;;;5016781;28;20115;-54
2022/09/30 01:50:55;;;;;;;1.10;0.45;;;19.40;1.00;;;;;;5016780;28;20042;-56
2022/09/30 01:53:34;;;;;;;0.73;0.40;;;19.40;1.00;;;;;;5016412;28;20042;-55
2022/09/30 01:56:04;;;;;;;1.08;0.55;;;19.30;1.00;;;;;;5016303;28;20038;-54
2022/09/30 01:58:52;;;;;;;1.10;0.50;;;19.40;1.00;;;;;;5016197;28;20044;-56
2022/09/30 02:01:26;;;;;;;1.50;0.85;;;19.30;1.00;;;;;;5016552;28;20042;-57
2022/09/30 02:03:57;;;;;;;1.02;0.80;;;19.30;1.00;;;;;;5016192;28;20093;-57
2022/09/30 02:06:30;;;;;;;1.08;0.40;;;19.40;1.00;;;;;;5016326;28;20061;-57
2022/09/30 02:09:02;;;;;;;1.00;0.70;;;19.40;1.00;;;;;;5016070;28;20082;-56
2022/09/30 02:11:35;;;;;;;1.10;0.50;;;19.30;1.00;;;;;;5016077;28;20046;-55
2022/09/30 02:14:37;;;;;;;1.50;0.60;;;19.30;1.00;;;;;;5016065;28;20046;-57
2022/09/30 02:17:14;;;;;;;0.90;0.60;;;19.30;1.00;;;;;;5015634;28;20062;-57
2022/09/30 02:19:46;;;;;;;1.52;0.70;;;19.30;1.00;;;;;;5016098;28;20041;-55
2022/09/30 02:22:21;;;;;;;1.48;0.50;;;19.20;1.00;;;;;;5015631;28;20133;-59
2022/09/30 02:24:54;;;;;;;1.08;0.57;;;19.20;1.00;;;;;;5015919;28;20069;-58
2022/09/30 02:27:33;;;;;;;1.38;0.55;;;19.30;1.00;;;;;;5016169;28;20049;-58
2022/09/30 02:30:03;;;;;;;1.10;0.50;;;19.30;1.00;;;;;;5015731;28;20229;-57
2022/09/30 02:32:34;;;;;;;1.40;0.73;;;19.30;1.00;;;;;;5015823;28;20129;-58
2022/09/30 02:35:12;;;;;;;1.65;0.60;;;19.30;1.00;;;;;;5015549;28;20046;-57
2022/09/30 02:37:44;;;;;;;1.40;0.50;;;19.30;1.00;;;;;;5015574;28;20496;-58
2022/09/30 02:40:20;;;;;;;1.70;0.70;;;19.30;1.00;;;;;;5015152;28;20041;-58
2022/09/30 02:42:48;;;;;;;0.85;0.50;;;19.20;1.00;;;;;;5015313;28;20034;-58
2022/09/30 02:45:20;;;;;;;1.38;0.50;;;19.30;1.00;;;;;;5015164;28;20053;-58
2022/09/30 02:48:09;;;;;;;1.60;0.73;;;19.30;1.00;;;;;;5015458;28;20049;-57
2022/09/30 02:51:02;;;;;;;0.98;0.68;;;19.20;1.00;;;;;;5015990;28;20045;-57
2022/09/30 02:53:29;;;;;;;4.55;0.75;;;19.20;1.00;;;;;;5014651;28;20050;-56
2022/09/30 02:56:06;;;;;;;1.25;0.40;;;19.20;1.00;;;;;;5015510;28;20061;-58
2022/09/30 02:58:38;;;;;;;1.20;0.47;;;19.20;1.00;;;;;;5015226;28;20048;-57
2022/09/30 03:01:11;;;;;;;1.30;0.47;;;19.20;1.00;;;;;;5014959;28;20121;-57
2022/09/30 03:03:54;;;;;;;0.68;0.40;;;19.20;1.00;;;;;;5014975;28;20038;-57
2022/09/30 03:06:21;;;;;;;1.90;0.57;;;19.20;1.00;;;;;;5015328;28;20081;-57
2022/09/30 03:08:51;;;;;;;1.60;0.70;;;19.20;1.00;;;;;;5015184;28;20100;-54
2022/09/30 03:11:25;;;;;;;1.58;0.60;;;19.20;1.00;;;;;;5015465;28;20048;-56
2022/09/30 03:13:58;;;;;;;1.15;0.43;;;19.10;1.00;;;;;;5014584;28;20048;-57
2022/09/30 03:16:45;;;;;;;1.40;0.43;;;19.10;1.00;;;;;;5014885;28;20499;-58
2022/09/30 03:19:30;;;;;;;0.60;0.30;;;19.20;1.00;;;;;;5014619;28;20042;-58
2022/09/30 03:22:11;;;;;;;1.08;0.55;;;19.10;1.00;;;;;;5014631;28;20610;-58
2022/09/30 03:25:17;;;;;;;1.75;0.50;;;19.10;1.00;;;;;;5014659;28;20045;-56
2022/09/30 03:27:59;;;;;;;1.15;0.75;;;19.10;1.00;;;;;;5014591;28;20050;-58
2022/09/30 03:30:26;;;;;;;0.88;0.38;;;19.10;1.00;;;;;;5014361;28;20056;-57
2022/09/30 03:32:52;;;;;;;0.75;0.50;;;19.10;1.00;;;;;;5014259;28;20046;-56
2022/09/30 03:35:53;;;;;;;1.95;0.50;;;19.10;1.00;;;;;;5014665;28;20045;-54
2022/09/30 03:38:33;;;;;;;0.88;0.60;;;19.10;1.00;;;;;;5014282;28;20046;-56
2022/09/30 03:41:23;;;;;;;2.30;0.50;;;19.10;1.00;;;;;;5014528;28;20117;-54
2022/09/30 03:44:10;;;;;;;4.13;0.57;;;19.10;1.00;;;;;;5013176;28;20046;-55
2022/09/30 03:46:43;;;;;;;0.98;0.52;;;19.10;1.00;;;;;;5013743;28;20034;-57
2022/09/30 03:49:15;;;;;;;1.20;0.60;;;19.10;1.00;;;;;;5014309;28;20037;-56
2022/09/30 03:51:42;;;;;;;1.55;0.55;;;19.10;1.00;;;;;;5014003;28;20053;-57
2022/09/30 03:54:11;;;;;;;1.15;0.40;;;19.10;1.00;;;;;;5014400;28;20097;-57
2022/09/30 03:56:42;;;;;;;1.58;0.73;;;19.10;1.00;;;;;;5014457;28;20491;-56
2022/09/30 03:59:23;;;;;;;2.47;0.63;;;19.10;1.00;;;;;;5014596;28;20100;-54
2022/09/30 04:01:51;;;;;;;2.17;0.60;;;19.10;1.00;;;;;;5013621;28;20042;-55
2022/09/30 04:04:18;;;;;;;2.58;0.40;;;19.00;1.00;;;;;;5013728;28;20500;-57
2022/09/30 04:06:46;;;;;;;0.52;0.38;;;19.00;1.00;;;;;;5013985;28;20038;-57
2022/09/30 04:09:13;;;;;;;1.65;0.50;;;19.10;1.00;;;;;;5013426;28;20050;-55
2022/09/30 04:11:40;;;;;;;2.58;0.90;;;19.00;1.00;;;;;;5012776;28;20523;-56
2022/09/30 04:14:07;;;;;;;0.90;0.38;;;19.00;1.00;;;;;;5013645;28;20076;-56
2022/09/30 04:16:34;;;;;;;0.90;0.60;;;19.00;1.00;;;;;;5013840;28;20459;-54
2022/09/30 04:19:01;;;;;;;1.23;0.63;;;18.90;1.00;;;;;;5013589;28;20042;-57
2022/09/30 04:21:27;;;;;;;1.60;0.50;;;18.90;1.00;;;;;;5014081;28;20530;-57
2022/09/30 04:23:55;;;;;;;0.88;0.55;;;18.80;1.00;;;;;;5013909;28;20046;-56
2022/09/30 04:26:22;;;;;;;3.65;0.90;;;18.80;1.00;;;;;;5011050;28;20037;-55
2022/09/30 04:28:50;;;;;;;5.72;0.90;;;18.90;1.00;;;;;;5013541;28;20046;-56
2022/09/30 04:31:18;;;;;;;7.75;0.63;;;18.90;1.00;;;;;;5013060;28;20096;-56
2022/09/30 04:33:45;;;;;;;1.00;0.47;;;18.90;1.00;;;;;;5013179;28;20120;-56
2022/09/30 04:36:12;;;;;;;2.22;0.68;;;18.90;1.00;;;;;;5013311;28;20088;-56
2022/09/30 04:38:39;;;;;;;2.70;0.80;;;18.90;1.00;;;;;;5013858;28;20045;-57
2022/09/30 04:41:06;;;;;;;1.20;0.80;;;18.80;1.00;;;;;;5013301;28;20468;-56
2022/09/30 04:43:33;;;;;;;3.13;0.82;;;18.90;1.00;;;;;;5013294;28;20112;-56
2022/09/30 04:46:00;;;;;;;7.40;0.77;;;18.80;1.00;;;;;;5012991;28;20042;-55
2022/09/30 04:48:31;;;;;;;2.47;0.50;;;18.80;1.00;;;;;;5013421;28;20061;-56
2022/09/30 04:51:01;;;;;;;1.35;0.52;;;18.80;1.00;;;;;;5008167;28;20125;-54
2022/09/30 04:53:28;;;;;;;1.73;0.85;;;18.80;1.00;;;;;;5003662;28;20054;-52
2022/09/30 04:56:01;;;;;;;1.27;0.60;;;18.80;1.00;;;;;;5012257;28;20108;-54
2022/09/30 04:58:28;;;;;;;;;;;18.80;1.00;;;;;;5013027;28;20046;-53
2022/09/30 05:01:10;;;;;;;1.92;0.80;;;18.80;1.00;;;;;;5017721;28;20336;-57
2022/09/30 05:03:38;;;;;;;10.35;3.28;;;18.80;1.00;;;;;;5016986;28;20396;-56
2022/09/30 05:06:06;;;;;;;2.83;1.17;;;18.90;1.00;;;;;;5017105;28;20073;-54
2022/09/30 05:08:33;;;;;;;1.52;0.82;;;18.90;1.00;;;;;;5017353;28;20217;-54
2022/09/30 05:11:08;;;;;;;7.90;1.50;;;18.90;1.00;;;;;;5016974;28;20046;-57
2022/09/30 05:13:37;;;;;;;1.00;0.50;;;18.90;1.00;;;;;;5016667;28;20073;-55
2022/09/30 05:16:06;;;;;;;2.10;0.70;;;18.90;1.00;;;;;;5016845;28;20104;-53
2022/09/30 05:18:34;;;;;;;1.58;0.63;;;18.90;1.00;;;;;;5016838;28;20077;-55
2022/09/30 05:21:02;;;;;;;1.23;0.50;;;18.90;1.00;;;;;;5016755;28;20061;-57
2022/09/30 05:23:30;;;;;;;3.10;1.45;;;18.90;1.00;;;;;;5016504;28;20049;-54
2022/09/30 05:25:58;;;;;;;2.55;1.48;;;19.00;1.00;;;;;;5017092;28;20037;-54
2022/09/30 05:28:25;;;;;;;1.08;0.57;;;18.90;1.00;;;;;;5016942;28;20042;-58
2022/09/30 05:30:58;;;;;;;0.98;0.57;;;18.90;1.00;;;;;;5016617;28;20042;-52
2022/09/30 05:33:28;;;;;;;3.13;0.60;;;18.90;1.00;;;;;;5016237;28;20065;-48
2022/09/30 05:35:59;;;;;;;3.15;0.50;;;18.90;1.00;;;;;;5016625;28;20050;-57
2022/09/30 05:38:26;;;;;;;0.90;0.60;;;18.90;1.00;;;;;;5016309;28;20050;-57
2022/09/30 05:40:54;;;;;;;1.48;0.63;;;18.80;1.00;;;;;;5008929;28;20038;-56
2022/09/30 05:43:21;;;;;;;1.30;0.63;;;18.70;1.00;;;;;;5012163;28;20038;-58
2022/09/30 05:45:53;;;;;;;1.55;0.60;;;18.70;1.00;;;;;;5016307;28;20049;-59
2022/09/30 05:48:20;;;;;;;1.45;0.82;;;18.70;1.00;;;;;;5016515;28;20034;-57
2022/09/30 05:50:49;;;;;;;2.25;0.40;;;18.70;1.00;;;;;;5016283;28;20112;-58
2022/09/30 05:53:17;;;;;;;2.92;0.50;;;18.60;1.00;;;;;;5015898;28;20050;-55
2022/09/30 05:55:46;;;;;;;2.53;0.50;;;18.70;1.00;;;;;;5015974;28;20042;-58
2022/09/30 05:58:16;;;;;;;1.20;0.55;;;18.70;1.00;;;;;;5016002;28;20046;-57
2022/09/30 06:00:45;;;;;;;0.98;0.57;;;18.80;1.00;;;;;;5016384;28;20037;-55
2022/09/30 06:03:13;;;;;;;3.03;0.60;;;18.80;1.00;;;;;;5015696;28;20042;-57
2022/09/30 06:05:40;;;;;;;2.35;0.68;;;18.80;1.00;;;;;;5015910;28;20072;-57
2022/09/30 06:08:10;;;;;;;2.08;0.60;;;19.50;1.00;;;;;;5016220;28;20088;-58
2022/09/30 06:10:40;;;;;;;1.17;0.57;;;20.60;1.00;;;;;;5015451;28;20052;-57
2022/09/30 06:13:08;;;;;;;0.77;0.50;;;21.60;1.00;;;;;;5015737;28;20120;-57
2022/09/30 06:15:38;;;;;;;0.93;0.55;;;22.00;1.00;;;;;;5014713;28;20046;-57
2022/09/30 06:18:06;;;;;;;0.93;0.55;;;21.00;1.00;;;;;;5015659;28;20449;-60
2022/09/30 06:20:33;;;;;;;3.90;1.50;;;20.10;1.00;;;;;;5015464;28;20038;-56
2022/09/30 06:23:00;;;;;;;1.45;0.57;;;19.70;1.00;;;;;;5014940;28;20554;-56
2022/09/30 06:25:28;;;;;;;3.63;0.73;;;19.40;1.00;;;;;;5015226;28;20403;-58
2022/09/30 06:27:56;;;;;;;2.35;1.08;;;19.30;1.00;;;;;;5015372;28;20034;-58
2022/09/30 06:30:23;;;;;;;1.17;0.57;;;19.20;1.00;;;;;;5015721;28;20041;-55
2022/09/30 06:32:50;;;;;;;1.08;0.88;;;19.10;1.00;;;;;;5014949;28;20038;-57
2022/09/30 06:35:19;;;;;;;2.50;0.60;;;19.10;1.00;;;;;;5015178;28;20048;-58
2022/09/30 06:37:50;;;;;;;0.70;0.43;;;19.00;1.00;;;;;;5015352;28;20049;-58
2022/09/30 06:40:17;;;;;;;1.20;0.68;;;19.00;1.00;;;;;;5015321;28;20408;-58
2022/09/30 06:42:43;;;;;;;0.95;0.45;;;18.90;1.00;;;;;;5014875;28;20030;-53
2022/09/30 06:45:11;;;;;;;1.27;0.55;;;18.90;1.00;;;;;;5015084;28;20045;-58
2022/09/30 06:47:56;;;;;;;4.57;0.65;;;18.90;1.00;;;;;;5015372;28;20125;-55
2022/09/30 06:50:26;;;;;;;2.72;0.70;;;18.80;1.00;;;;;;5015267;28;20042;-55
2022/09/30 06:52:59;;;;;;;2.20;0.70;;;18.70;1.00;;;;;;5014732;28;20046;-54
2022/09/30 06:55:27;;;;;;;1.70;0.68;;;18.70;1.00;;;;;;5015372;28;20042;-56
2022/09/30 06:57:55;;;;;;;0.90;0.50;;;18.70;1.00;;;;;;5014999;28;20076;-55
2022/09/30 07:00:23;;;;;;;1.20;0.63;;;18.60;1.00;;;;;;5015012;28;20046;-57
2022/09/30 07:02:52;;;;;;;1.92;0.82;;;18.60;1.00;;;;;;5014993;28;20046;-56
2022/09/30 07:05:19;;;;;;;0.80;0.50;;;18.60;1.00;;;;;;5014898;28;20041;-57
2022/09/30 07:07:48;;;;;;;2.28;0.60;;;18.60;1.00;;;;;;5014862;28;20042;-58
2022/09/30 07:10:14;;;;;;;0.65;0.38;;;18.60;1.00;;;;;;5015258;28;20100;-56
2022/09/30 07:12:41;;;;;;;1.00;0.60;;;18.60;1.00;;;;;;5014537;28;20103;-57
2022/09/30 07:15:08;;;;;;;1.42;0.70;;;18.50;1.00;;;;;;5015066;28;20067;-56
2022/09/30 07:17:39;;;;;;;3.75;0.50;;;18.50;1.00;;;;;;5014647;28;20124;-55
2022/09/30 07:20:07;;;;;;;2.58;0.93;;;18.50;1.00;;;;;;5014652;28;20064;-57
2022/09/30 07:22:34;;;;;;;1.35;0.40;;;18.50;1.00;;;;;;5013621;28;20042;-54
2022/09/30 07:25:02;;;;;;;0.93;0.40;;;18.50;1.00;;;;;;5014603;28;20536;-56
2022/09/30 07:27:32;;;;;;;1.73;0.65;;;18.50;1.00;;;;;;5014822;28;20042;-56
2022/09/30 07:29:59;;;;;;;0.90;0.50;;;18.50;1.00;;;;;;5014417;28;20165;-58
2022/09/30 07:32:46;;;;;;;0.80;0.32;;;18.50;1.00;;;;;;5013957;28;20108;-58
2022/09/30 07:35:13;;;;;;;0.95;0.40;;;18.50;1.00;;;;;;5014474;28;20092;-57
2022/09/30 07:37:40;;;;;;;0.85;0.28;;;18.40;1.00;;;;;;5014450;28;20042;-51
2022/09/30 07:40:08;;;;;;;2.00;0.93;;;18.40;1.00;;;;;;5014833;28;20475;-56
2022/09/30 07:42:38;;;;;;;0.60;0.15;;;18.40;1.00;;;;;;5013860;28;20044;-53
2022/09/30 07:45:05;;;;;;;2.40;0.57;;;18.40;1.00;;;;;;5014361;28;20105;-55
2022/09/30 07:47:32;;;;;;;1.35;0.57;;;18.40;1.00;;;;;;5014369;28;20488;-54
2022/09/30 07:49:59;;;;;;;0.75;0.40;;;18.40;1.00;;;;;;5014188;28;20041;-52
2022/09/30 07:52:26;;;;;;;0.80;0.50;;;18.40;1.00;;;;;;5013494;28;20412;-55
2022/09/30 07:54:52;;;;;;;1.25;0.50;;;18.40;1.00;;;;;;5013910;28;20046;-62
2022/09/30 07:57:20;;;;;;;2.20;0.40;;;18.30;1.00;;;;;;5014062;28;20041;-54
2022/09/30 07:59:47;;;;;;;0.80;0.40;;;18.30;1.00;;;;;;5013981;28;20049;-55
2022/09/30 08:02:16;;;;;;;1.55;0.43;;;18.20;1.00;;;;;;5013787;28;20041;-55
2022/09/30 08:04:43;;;;;;;1.17;0.45;;;18.20;1.00;;;;;;5013601;28;20550;-57
2022/09/30 08:07:12;;;;;;;1.35;0.43;;;18.20;1.00;;;;;;5013843;28;20060;-56
2022/09/30 08:09:39;;;;;;;0.73;0.40;;;18.20;1.00;;;;;;5013661;28;20068;-55
2022/09/30 08:12:06;;;;;;;0.68;0.35;;;18.10;1.00;;;;;;5013482;28;20108;-55
2022/09/30 08:14:33;;;;;;;1.27;0.43;;;18.10;1.00;;;;;;5013493;28;20053;-55
2022/09/30 08:17:00;;;;;;;2.38;0.63;;;18.20;1.00;;;;;;5013829;28;20097;-53
2022/09/30 08:19:28;;;;;;;2.13;0.32;;;18.30;1.00;;;;;;5013790;28;20132;-57
2022/09/30 08:21:56;;;;;;;0.95;0.63;;;18.20;1.00;;;;;;5012972;28;20048;-57
2022/09/30 08:24:24;;;;;;;0.60;0.38;;;18.40;1.00;;;;;;5013247;28;20425;-58
2022/09/30 08:26:52;;;;;;;0.55;0.22;;;18.60;1.00;;;;;;5013254;28;20061;-57
2022/09/30 08:29:19;;;;;;;1.35;0.60;;;18.80;1.00;;;;;;5013045;28;20480;-57
2022/09/30 08:32:06;;;;;;;0.80;0.40;;;18.80;1.00;;;;;;5012570;28;20050;-57
2022/09/30 08:34:34;;;;;;;1.23;0.50;;;18.80;1.00;;;;;;5012634;28;20044;-56
2022/09/30 08:37:02;;;;;;;1.20;0.52;;;18.80;1.00;;;;;;5012885;28;20068;-55
2022/09/30 08:39:34;;;;;;;1.13;0.40;;;18.80;1.00;;;;;;5012963;28;20499;-56
2022/09/30 08:42:19;;;;;;;0.90;0.40;;;18.70;1.00;;;;;;5013177;28;20407;-56
2022/09/30 08:45:27;;;;;;;1.23;0.45;;;18.80;1.00;;;;;;5013252;28;20042;-58
2022/09/30 08:48:03;;;;;;;0.80;0.30;;;18.80;1.00;;;;;;5013461;28;20076;-58
2022/09/30 08:50:53;;;;;;;0.63;0.50;;;18.90;1.00;;;;;;5013602;28;20048;-58
2022/09/30 08:53:29;;;;;;;1.17;0.20;;;18.80;1.00;;;;;;5012779;28;20096;-59
2022/09/30 08:56:01;;;;;;;0.75;0.35;;;18.90;1.00;;;;;;5012880;28;20064;-56
2022/09/30 08:58:37;;;;;;;1.73;0.73;;;18.90;1.00;;;;;;5013107;28;20066;-54
2022/09/30 09:01:10;;;;;;;0.75;0.40;;;18.90;1.00;;;;;;5012882;28;20045;-56
2022/09/30 09:03:39;;;;;;;0.63;0.40;;;19.00;1.00;;;;;;5012595;28;20075;-58
2022/09/30 09:06:19;;;;;;;0.50;0.30;;;19.00;1.00;;;;;;5013171;28;20480;-53
2022/09/30 09:09:19;;;;;;;0.98;0.32;;;19.10;1.00;;;;;;5012965;28;20042;-58
2022/09/30 09:12:03;;;;;;;3.33;0.40;;;19.10;1.00;;;;;;5013519;28;20400;-54
2022/09/30 09:14:42;;;;;;;0.95;0.30;;;19.10;1.00;;;;;;5012915;28;20053;-57
2022/09/30 09:17:27;;;;;;;2.38;1.20;;;19.10;1.00;;;;;;5013198;28;20065;-59
2022/09/30 09:20:16;;;;;;;0.60;0.30;;;19.10;1.00;;;;;;5013312;28;20046;-57
2022/09/30 09:22:47;;;;;;;0.85;0.30;;;19.20;1.00;;;;;;5012813;28;20049;-58
2022/09/30 09:25:17;;;;;;;0.80;0.32;;;19.20;1.00;;;;;;5013165;28;20121;-57
2022/09/30 09:27:48;;;;;;;0.63;0.40;;;19.20;1.00;;;;;;5012975;28;20038;-58
2022/09/30 09:30:24;;;;;;;0.55;0.30;;;19.30;1.00;;;;;;5013563;28;20120;-58
2022/09/30 09:32:55;;;;;;;1.52;0.20;;;19.30;1.00;;;;;;5012780;28;20122;-57
2022/09/30 09:35:53;;;;;;;1.25;0.40;;;19.30;1.00;;;;;;5013109;28;20046;-57
2022/09/30 09:38:34;;;;;;;0.70;0.30;;;19.40;1.00;;;;;;5012699;28;20121;-53
2022/09/30 09:41:20;;;;;;;0.93;0.45;;;19.40;1.00;;;;;;5012792;28;20045;-54
2022/09/30 09:43:57;;;;;;;0.77;0.30;;;19.40;1.00;;;;;;5012664;28;20389;-56
2022/09/30 09:46:39;;;;;;;0.73;0.30;;;19.50;1.00;;;;;;5015778;28;20096;-54
2022/09/30 09:49:12;;;;;;;0.70;0.40;;;19.50;1.00;;;;;;5016143;28;20046;-53
2022/09/30 09:51:46;;;;;;;0.82;0.40;;;19.50;1.00;;;;;;5016018;28;20045;-54
2022/09/30 09:54:17;;;;;;;1.38;0.38;;;19.50;1.00;;;;;;5016037;28;20053;-55
2022/09/30 09:56:44;;;;;;;1.92;0.30;;;19.50;1.00;;;;;;5016369;28;20041;-53
2022/09/30 09:59:12;;;;;;;1.25;0.30;;;19.60;1.00;;;;;;5016673;28;20448;-52
2022/09/30 10:01:50;;;;;;;0.55;0.40;;;19.60;1.00;;;;;;5015566;28;20038;-54
2022/09/30 10:04:26;;;;;;;0.40;0.25;;;19.60;1.00;;;;;;5016043;28;20053;-53
2022/09/30 10:06:54;;;;;;;1.20;0.40;;;19.60;1.00;;;;;;5016261;28;20037;-55
2022/09/30 10:09:42;;;;;;;0.95;0.45;;;19.50;1.00;;;;;;5015940;28;20042;-51
2022/09/30 10:12:11;;;;;;;1.48;0.40;;;19.50;1.00;;;;;;5015630;28;20492;-55
2022/09/30 10:14:46;;;;;;;2.30;0.30;;;19.40;1.00;;;;;;5015706;28;20554;-57
2022/09/30 10:17:28;;;;;;;0.40;0.17;;;19.40;1.00;;;;;;5016054;28;20042;-52
2022/09/30 10:20:15;;;;;;;0.45;0.20;;;19.30;1.00;;;;;;5016208;28;20057;-52
2022/09/30 10:22:42;;;;;;;0.77;0.40;;;19.30;1.00;;;;;;5015253;28;20564;-56
2022/09/30 10:25:13;;;;;;;0.82;0.40;;;19.30;1.00;;;;;;5015895;28;20376;-53
2022/09/30 10:27:53;;;;;;;0.90;0.40;;;19.40;1.00;;;;;;5015536;28;20042;-52
2022/09/30 10:30:49;;;;;;;1.02;0.50;;;19.40;1.00;;;;;;5015637;28;20041;-52
2022/09/30 10:33:21;;;;;;;0.63;0.30;;;19.40;1.00;;;;;;5014591;28;20050;-55
2022/09/30 10:36:04;;;;;;;0.47;0.20;;;19.40;1.00;;;;;;5015556;28;20042;-49
2022/09/30 10:38:33;;;;;;;1.17;0.40;;;19.50;1.00;;;;;;5015346;28;20400;-56
2022/09/30 10:41:01;;;;;;;1.00;0.80;;;19.50;1.00;;;;;;5015531;28;20046;-51
2022/09/30 10:43:48;;;;;;;0.77;0.20;;;19.50;1.00;;;;;;5014997;28;20046;-56
2022/09/30 10:46:34;;;;;;;0.63;0.43;;;19.50;1.00;;;;;;5015668;28;20108;-53
2022/09/30 10:49:19;;;;;;;1.02;0.30;;;19.50;1.00;;;;;;5015220;28;20100;-54
2022/09/30 10:51:46;;;;;;;1.20;0.60;;;19.60;1.00;;;;;;5015151;28;20385;-54
2022/09/30 10:54:32;;;;;;;1.27;0.60;;;19.60;1.00;;;;;;5015007;28;20104;-51
2022/09/30 10:57:03;;;;;;;1.65;0.40;;;19.60;1.00;;;;;;5015339;28;20045;-55
2022/09/30 10:59:37;;;;;;;0.73;0.43;;;19.60;1.00;;;;;;5015182;28;20046;-52
2022/09/30 11:02:04;;;;;;;1.55;0.32;;;19.60;1.00;;;;;;5015080;28;20506;-56
2022/09/30 11:04:40;;;;;;;1.00;0.30;;;19.60;1.00;;;;;;5014904;28;20456;-49
2022/09/30 11:07:57;;;;;;;1.00;0.20;;;19.60;1.00;;;;;;5014813;28;20084;-54
2022/09/30 11:10:42;;;;;;;1.02;0.30;;;19.60;1.00;;;;;;5014070;28;20056;-53
2022/09/30 11:13:17;;;;;;;0.73;0.10;;;19.60;1.00;;;;;;5014319;28;20049;-54
2022/09/30 11:16:07;;;;;;;0.50;0.30;;;19.60;1.00;;;;;;5014620;28;20045;-50
2022/09/30 11:18:46;;;;;;;2.00;0.50;;;19.60;1.00;;;;;;5014594;28;20042;-54
2022/09/30 11:21:41;;;;;;;0.38;0.17;;;19.60;1.00;;;;;;5014618;28;20112;-51
2022/09/30 11:24:32;;;;;;;0.57;0.25;;;19.60;1.00;;;;;;5014163;28;20408;-53
2022/09/30 11:27:05;;;;;;;0.85;0.20;;;19.60;1.00;;;;;;5014331;28;20042;-55
2022/09/30 11:29:47;;;;;;;2.97;1.25;;;19.60;1.00;;;;;;5014462;28;20046;-55
2022/09/30 11:32:55;;;;;;;0.50;0.20;;;19.60;1.00;;;;;;5014232;28;20042;-55
2022/09/30 11:35:59;;;;;;;0.65;0.32;;;19.60;1.00;;;;;;5014131;28;20041;-53
2022/09/30 11:38:32;;;;;;;0.70;0.15;;;19.70;1.00;;;;;;5014222;28;20150;-56
2022/09/30 11:41:10;;;;;;;1.08;0.40;;;19.60;1.00;;;;;;5014019;28;20048;-53
2022/09/30 11:43:58;;;;;;;0.70;0.40;;;19.60;1.00;;;;;;5013774;28;20042;-56
2022/09/30 11:46:37;;;;;;;0.73;0.32;;;19.60;1.00;;;;;;5014247;28;20465;-56
2022/09/30 11:49:41;;;;;;;0.63;0.20;;;19.60;1.00;;;;;;5014476;28;20038;-51
2022/09/30 11:52:13;;;;;;;0.40;0.30;;;19.60;1.00;;;;;;5014147;28;20052;-53
2022/09/30 11:55:30;;;;;;;1.90;0.28;;;19.60;1.00;;;;;;5014134;28;20056;-48
2022/09/30 11:58:09;;;;;;;2.25;0.20;;;19.60;1.00;;;;;;5011796;28;20189;-52
2022/09/30 12:01:06;;;;;;;1.05;0.30;;;19.60;1.00;;;;;;5013743;28;20468;-56
2022/09/30 12:03:37;;;;;;;1.45;0.28;;;19.60;1.00;;;;;;5013307;28;20034;-56
2022/09/30 12:06:15;;;;;;;0.73;0.25;;;19.60;1.00;;;;;;5014078;28;20190;-54
2022/09/30 12:08:49;;;;;;;1.70;0.38;;;19.50;1.00;;;;;;5013369;28;20046;-50
2022/09/30 12:11:22;;;;;;;1.10;0.30;;;19.50;1.00;;;;;;5014110;28;20076;-51
2022/09/30 12:13:55;;;;;;;;;;;19.50;1.00;;;;;;5014033;28;20062;-57
2022/09/30 12:16:28;;;;;;;0.98;0.43;;;19.50;1.00;;;;;;5013499;28;19922;-57
2022/09/30 12:19:14;;;;;;;1.35;0.63;;;19.50;1.00;;;;;;5013181;28;20046;-53
2022/09/30 12:21:44;;;;;;;0.63;0.28;;;19.50;1.00;;;;;;5013159;28;20034;-57
2022/09/30 12:24:24;;;;;;;1.23;0.35;;;19.50;1.00;;;;;;5013420;28;20038;-54
2022/09/30 12:26:51;;;;;;;0.63;0.30;;;19.50;1.00;;;;;;5013604;28;20121;-56
2022/09/30 12:32:27;;;;;;;1.55;0.47;;;19.50;1.00;;;;;;5013518;28;20393;-56
2022/09/30 12:35:00;;;;;;;0.85;0.20;;;19.50;1.00;;;;;;5013553;28;20049;-55
2022/09/30 12:37:38;;;;;;;0.90;0.20;;;19.50;1.00;;;;;;5013553;28;20137;-54
2022/09/30 12:40:23;;;;;;;0.65;0.17;;;19.50;1.00;;;;;;5013291;28;20169;-53
2022/09/30 12:42:53;;;;;;;0.30;0.08;;;19.40;1.00;;;;;;5013054;28;20042;-54
2022/09/30 12:45:54;;;;;;;1.13;0.30;;;19.40;1.00;;;;;;5013302;28;20046;-56
2022/09/30 12:48:44;;;;;;;1.45;0.30;;;19.40;1.00;;;;;;5013213;28;20455;-52
2022/09/30 12:51:21;;;;;;;1.60;0.35;;;19.40;1.00;;;;;;5012638;28;20512;-52
2022/09/30 12:53:55;;;;;;;1.35;0.40;;;19.40;1.00;;;;;;5012882;28;20042;-47
2022/09/30 12:56:27;;;;;;;1.13;0.20;;;19.40;1.00;;;;;;5013726;28;20050;-53
2022/09/30 12:58:56;;;;;;;0.50;0.20;;;19.40;1.00;;;;;;5013131;28;20042;-55
2022/09/30 13:01:34;;;;;;;0.93;0.20;;;19.40;1.00;;;;;;5013339;28;20115;-54
2022/09/30 13:04:01;;;;;;;1.75;0.43;;;19.40;1.00;;;;;;5013076;28;20561;-51
2022/09/30 13:06:46;;;;;;;0.50;0.22;;;19.40;1.00;;;;;;5012941;28;20044;-54
2022/09/30 13:09:15;;;;;;;0.80;0.20;;;19.40;1.00;;;;;;5013004;28;20079;-55
2022/09/30 13:11:58;;;;;;;2.00;0.40;;;19.40;1.00;;;;;;5012778;28;20042;-50
2022/09/30 13:14:42;;;;;;;0.85;0.40;;;19.40;1.00;;;;;;5013335;28;20458;-53
2022/09/30 13:17:09;;;;;;;1.85;0.43;;;19.40;1.00;;;;;;5013190;28;20050;-54
2022/09/30 13:19:52;;;;;;;0.52;0.15;;;19.40;1.00;;;;;;5013233;28;20046;-53
2022/09/30 13:22:19;;;;;;;;;;;19.40;1.00;;;;;;5017042;28;20061;-53
2022/09/30 13:27:47;;;;;;;1.13;0.20;;;19.40;1.00;;;;;;5016682;28;20038;-56
2022/09/30 13:30:14;;;;;;;0.30;0.20;;;19.40;1.00;;;;;;5011730;28;20042;-52
2022/09/30 13:32:46;;;;;;;0.88;0.43;;;19.40;1.00;;;;;;5003797;28;20088;-56
2022/09/30 13:35:50;;;;;;;0.50;0.23;;;19.40;1.00;;;;;;5016547;28;20125;-54
2022/09/30 13:38:20;;;;;;;0.55;0.25;;;19.30;1.00;;;;;;5016038;28;20333;-53
2022/09/30 13:40:52;;;;;;;1.30;0.20;;;19.40;1.00;;;;;;5016450;28;20042;-56
2022/09/30 13:43:42;;;;;;;0.85;0.30;;;19.30;1.00;;;;;;5016104;28;20038;-51